Latest Weather Observations for Bendigo

IDV60801

Issued at 11:31 pm EDT Friday 19 December 2014 (issued every 30 minutes, with the page automatically refreshed every 10 minutes)

About weather observations | Map of weather stations | Latest weather observations for VIC | Other Formats
Station Details ID: 081123 Name: BENDIGO AIRPORT Lat: -36.74 Lon: 144.33 Height: 208.0 m
Data from the previous 72 hours. | See also: Recent months at Bendigo
Date/Time
EDT
Temp
°C
App
Temp
°C
Dew
Point
Rel
Hum
%
Delta-T
°C
Wind Press
QNH
hPa
Press
MSL
hPa
Rain
since 9 am
mm
Dir
 
Spd
km/h
Gust
km/h
Spd
kts
Gust
kts
19/11:30pm 13.8 10.3 7.1 64 3.3 SSE 15 20 8 11 1019.0 1018.4 0.0
19/11:00pm 14.6 11.5 7.4 62 3.6 SSE 13 19 7 10 1019.2 1018.6 0.0
19/10:30pm 15.4 11.2 7.4 59 4.0 SSE 19 26 10 14 1019.0 1018.4 0.0
19/10:00pm 16.4 11.6 7.3 55 4.6 SSE 22 28 12 15 1018.7 1018.1 0.0
19/09:30pm 17.4 12.8 6.6 49 5.4 SSE 20 28 11 15 1018.3 1017.7 0.0
19/09:00pm 19.1 15.3 3.7 36 7.3 SSW 13 20 7 11 1017.9 1017.3 0.0
19/08:30pm 19.9 15.3 3.6 34 7.8 SSW 17 26 9 14 1017.6 1017.0 0.0
19/08:00pm 20.6 15.4 3.8 33 8.1 SW 20 30 11 16 1017.4 1016.8 0.0
19/07:30pm 21.4 16.2 3.6 31 8.6 SW 20 30 11 16 1017.0 1016.4 0.0
19/07:00pm 21.8 16.3 3.9 31 8.7 SSW 22 35 12 19 1016.6 1016.1 0.0
19/06:30pm 22.5 17.0 4.1 30 9.1 SW 22 32 12 17 1016.3 1015.7 0.0
19/06:00pm 22.1 16.9 3.7 30 9.0 SSW 20 32 11 17 1016.2 1015.6 0.0
19/05:30pm 22.7 16.7 3.3 28 9.4 SW 24 39 13 21 1016.0 1015.4 0.0
19/05:00pm 21.8 15.7 3.0 29 9.0 SW 24 35 13 19 1016.1 1015.5 0.0
19/04:30pm 22.1 17.4 3.3 29 9.1 WSW 17 35 9 19 1016.1 1015.5 0.0
19/04:00pm 22.0 16.8 2.7 28 9.2 SW 19 30 10 16 1016.2 1015.6 0.0
19/03:30pm 21.7 16.2 1.9 27 9.3 WSW 20 30 11 16 1016.2 1015.6 0.0
19/03:00pm 21.5 17.1 2.7 29 8.9 SSW 15 20 8 11 1016.3 1015.7 0.0
19/02:30pm 21.5 16.8 3.2 30 8.8 S 17 30 9 16 1016.5 1016.0 0.0
19/02:00pm 21.1 15.9 3.3 31 8.5 SSW 20 32 11 17 1016.6 1016.1 0.0
19/01:30pm 20.2 14.8 2.5 31 8.3 SSW 20 33 11 18 1017.1 1016.5 0.0
19/01:00pm 19.9 14.3 3.6 34 7.8 SW 22 39 12 21 1017.3 1016.7 0.0
19/12:30pm 19.5 13.5 3.6 35 7.6 SW 24 35 13 19 1017.2 1016.6 0.0
19/12:00pm 18.1 12.5 3.2 37 7.0 WSW 22 37 12 20 1017.4 1016.8 0.0
19/11:30am 17.8 13.1 3.3 38 6.8 SSW 17 28 9 15 1017.4 1016.8 0.0
19/11:00am 16.5 10.5 3.2 41 6.1 SW 24 39 13 21 1017.4 1016.8 0.0
19/10:30am 16.0 11.2 4.4 46 5.5 SW 19 28 10 15 1017.4 1016.8 0.0
19/10:00am 16.2 11.1 5.8 50 5.1 SSW 22 32 12 17 1017.3 1016.7 0.0
19/09:30am 15.4 9.3 4.8 49 5.0 SW 26 35 14 19 1017.2 1016.6 0.0
19/08:30am 13.4 8.0 6.3 62 3.4 SW 24 33 13 18 1016.9 1016.3 0.4
19/08:00am 12.8 7.9 6.8 67 2.9 SSW 22 30 12 16 1016.4 1015.8 0.4
19/07:30am 11.9 7.4 7.0 72 2.4 SW 20 28 11 15 1016.1 1015.5 0.4
19/07:00am 11.0 6.6 7.3 78 1.8 SW 20 35 11 19 1015.8 1015.2 0.4
19/06:30am 9.7 6.5 7.0 83 1.3 SW 13 19 7 10 1015.5 1014.9 0.4
19/05:30am 9.8 6.9 6.7 81 1.5 SSW 11 19 6 10 1015.1 1014.5 0.4
19/05:00am 10.2 7.0 6.9 80 1.6 SSW 13 19 7 10 1014.6 1014.0 0.4
19/04:30am 10.3 6.3 6.6 78 1.8 SW 17 24 9 13 1014.3 1013.7 0.4
19/04:00am 10.7 6.7 6.6 76 2.0 SW 17 26 9 14 1014.1 1013.5 0.4
19/03:30am 10.8 7.2 6.9 77 1.9 SW 15 22 8 12 1014.0 1013.4 0.4
19/03:00am 11.3 7.0 6.8 74 2.2 SSW 19 26 10 14 1013.8 1013.2 0.4
19/02:30am 11.8 7.3 6.9 72 2.4 SSW 20 30 11 16 1013.6 1013.0 0.4
19/02:00am 12.0 7.6 6.7 70 2.6 SSW 19 32 10 17 1013.7 1013.1 0.4
19/01:30am 12.2 7.8 6.7 69 2.7 SSW 19 30 10 16 1013.8 1013.2 0.4
19/01:00am 12.2 9.0 6.9 70 2.6 SW 13 20 7 11 1013.8 1013.2 0.4
19/12:30am 12.5 10.1 7.0 69 2.7 SSW 9 13 5 7 1013.7 1013.1 0.4
19/12:00am 12.2 9.4 6.9 70 2.6 S 11 19 6 10 1013.7 1013.1 0.4
 
Date/Time
EDT
Temp
°C
App
Temp
°C
Dew
Point
Rel
Hum
%
Delta-T
°C
Wind Press
QNH
hPa
Press
MSL
hPa
Rain
since 9 am
mm
Dir
 
Spd
km/h
Gust
km/h
Spd
kts
Gust
kts
18/11:30pm 12.7 9.5 6.7 67 2.9 SSW 13 20 7 11 1013.5 1012.9 0.4
18/11:00pm 13.3 9.7 6.6 64 3.3 SSW 15 22 8 12 1013.5 1012.9 0.4
18/10:30pm 13.5 10.2 6.4 62 3.4 SSW 13 22 7 12 1013.5 1012.9 0.4
18/10:00pm 13.9 10.4 7.0 63 3.4 SSW 15 24 8 13 1013.3 1012.7 0.4
18/09:30pm 14.5 9.7 7.5 63 3.5 SSW 22 28 12 15 1012.8 1012.2 0.4
18/09:00pm 15.4 12.7 9.1 66 3.3 SSW 13 22 7 12 1012.2 1011.5 0.4
18/08:30pm 15.9 14.3 10.2 69 3.0 S 9 15 5 8 1011.5 1010.9 0.4
18/08:00pm 16.5 13.3 9.9 65 3.5 SSW 17 28 9 15 1011.1 1010.5 0.4
18/07:30pm 17.0 13.2 9.7 62 3.9 SW 20 32 11 17 1010.6 1010.0 0.4
18/07:00pm 17.6 14.2 9.2 58 4.4 SW 17 28 9 15 1010.0 1009.4 0.4
18/06:30pm 16.0 12.3 10.3 69 3.0 SW 20 32 11 17 1009.6 1009.0 0.4
18/06:10pm 15.0 9.4 10.0 72 2.6 SW 30 48 16 26 1009.9 1009.3 0.2
18/06:00pm 16.6 10.8 9.3 62 3.8 SSW 30 43 16 23 1009.5 1008.9 0.2
18/05:30pm 17.2 14.2 12.7 75 2.5 SW 20 35 11 19 1009.0 1008.4 0.2
18/05:00pm 17.0 12.5 11.3 69 3.1 WSW 26 39 14 21 1009.1 1008.5 0.0
18/04:30pm 18.0 13.2 11.8 67 3.4 WSW 28 48 15 26 1008.8 1008.2 0.0
18/04:28pm 18.0 13.1 12.5 70 3.1 WSW 30 48 16 26 1008.8 1008.2 0.0
18/04:22pm 17.7 11.8 11.3 66 3.5 WSW 33 48 18 26 1008.7 1008.1 0.0
18/04:00pm 22.7 16.4 5.6 33 8.7 W 28 50 15 27 1007.1 1006.4 0.0
18/03:33pm 23.8 17.1 3.7 27 9.9 W 28 46 15 25 1006.8 1006.1 0.0
18/03:30pm 23.6 16.3 4.5 29 9.6 W 32 44 17 24 1006.8 1006.1 0.0
18/03:08pm 24.5 17.5 5.8 30 9.6 W 32 50 17 27 1006.9 1006.2 0.0
18/03:00pm 24.5 17.2 5.3 29 9.8 W 33 52 18 28 1006.9 1006.2 0.0
18/02:30pm 24.0 16.7 4.4 28 9.8 WNW 32 50 17 27 1006.6 1006.0 0.0
18/02:00pm 23.5 17.0 4.5 29 9.5 WNW 28 46 15 25 1006.8 1006.1 0.0
18/01:55pm 23.5 16.9 4.0 28 9.7 WNW 28 46 15 25 1006.8 1006.1 0.0
18/01:30pm 23.1 16.0 3.6 28 9.6 WNW 30 44 16 24 1006.9 1006.2 0.0
18/01:19pm 23.0 16.4 4.0 29 9.4 W 28 52 15 28 1006.8 1006.1 0.0
18/01:00pm 22.3 16.0 3.9 30 9.0 WNW 26 48 14 26 1007.2 1006.5 0.0
18/12:33pm 20.9 14.4 4.5 34 8.1 WNW 28 46 15 25 1007.2 1006.5 0.0
18/12:30pm 21.1 13.7 4.2 33 8.3 WNW 32 46 17 25 1007.2 1006.5 0.0
18/12:01pm 21.8 14.9 4.4 32 8.6 WNW 30 48 16 26 1007.0 1006.3 0.0
18/12:00pm 21.8 14.5 4.4 32 8.6 WNW 32 48 17 26 1006.9 1006.2 0.0
18/11:30am 22.9 15.0 4.4 30 9.2 NW 35 46 19 25 1006.9 1006.2 0.0
18/11:00am 22.5 16.0 4.5 31 9.0 NW 28 48 15 26 1007.1 1006.4 0.0
18/10:30am 22.1 16.7 4.6 32 8.7 NW 22 37 12 20 1007.2 1006.5 0.0
18/10:00am 21.0 16.1 5.0 35 8.0 WNW 20 30 11 16 1007.4 1006.7 0.0
18/09:30am 20.1 15.8 5.4 38 7.3 WNW 17 26 9 14 1007.5 1006.8 0.0
18/09:00am 18.4 14.5 5.3 42 6.4 W 15 22 8 12 1007.6 1006.9 0.0
18/08:30am 16.9 14.8 6.7 51 5.1 N 7 15 4 8 1007.3 1006.6 0.0
18/08:00am 15.3 13.4 6.8 57 4.2 NNW 6 11 3 6 1007.3 1006.6 0.0
18/07:30am 14.4 13.6 6.7 60 3.8 CALM 0 0 0 0 1006.9 1006.2 0.0
18/07:00am 12.0 11.1 6.1 67 2.8 CALM 0 0 0 0 1006.9 1006.2 0.0
18/06:30am 9.1 8.1 5.7 79 1.6 CALM 0 0 0 0 1006.4 1005.8 0.0
18/06:00am 9.2 8.2 5.8 79 1.6 CALM 0 0 0 0 1006.2 1005.6 0.0
18/05:30am 8.8 7.8 5.4 79 1.6 CALM 0 9 0 5 1006.0 1005.4 0.0
18/05:00am 8.2 7.0 4.4 77 1.7 CALM 0 0 0 0 1005.7 1005.1 0.0
18/04:30am 9.2 8.0 4.8 74 2.0 CALM 0 0 0 0 1005.5 1004.9 0.0
18/04:00am 8.8 7.6 4.6 75 1.9 CALM 0 0 0 0 1005.4 1004.8 0.0
18/03:30am 9.2 8.0 4.8 74 2.0 CALM 0 0 0 0 1005.4 1004.8 0.0
18/03:00am 10.0 8.9 5.2 72 2.2 CALM 0 0 0 0 1005.6 1005.0 0.0
18/02:30am 11.6 10.5 5.3 65 2.9 CALM 0 0 0 0 1005.8 1005.2 0.0
18/02:00am 12.7 11.4 5.8 63 3.3 SSE 2 7 1 4 1005.9 1005.3 0.0
18/01:30am 12.8 10.5 5.7 62 3.4 SSE 7 11 4 6 1006.1 1005.5 0.0
18/01:00am 13.2 10.5 5.6 60 3.6 SSE 9 13 5 7 1006.2 1005.6 0.0
18/12:30am 14.3 10.9 5.7 56 4.1 SSE 13 17 7 9 1006.2 1005.6 0.0
18/12:00am 15.4 11.0 5.0 50 5.0 SSE 17 24 9 13 1006.3 1005.7 0.0
 
Date/Time
EDT
Temp
°C
App
Temp
°C
Dew
Point
Rel
Hum
%
Delta-T
°C
Wind Press
QNH
hPa
Press
MSL
hPa
Rain
since 9 am
mm
Dir
 
Spd
km/h
Gust
km/h
Spd
kts
Gust
kts
17/11:30pm 15.8 11.8 4.8 48 5.2 SSE 15 20 8 11 1006.8 1006.1 0.0
17/11:00pm 16.4 12.6 4.1 44 5.8 SSE 13 17 7 9 1007.0 1006.3 0.0
17/10:30pm 17.8 14.9 2.5 36 7.1 S 7 15 4 8 1007.0 1006.3 0.0
17/10:00pm 14.9 13.0 0.4 37 6.3 CALM 0 0 0 0 1006.9 1006.2 0.0
17/09:30pm 16.3 14.3 -0.4 32 7.2 CALM 0 0 0 0 1006.5 1005.9 0.0
17/09:00pm 19.2 17.0 -1.3 25 8.9 CALM 0 0 0 0 1006.3 1005.7 0.0
17/08:30pm 21.7 18.1 -2.2 20 10.4 NW 7 11 4 6 1006.2 1005.6 0.0
17/08:00pm 23.2 19.2 -2.4 18 11.2 NW 9 15 5 8 1006.2 1005.6 0.0
17/07:30pm 23.6 19.6 -2.1 18 11.4 W 9 17 5 9 1006.0 1005.4 0.0
17/07:00pm 24.0 20.1 -1.8 18 11.5 W 9 15 5 8 1005.8 1005.2 0.0
17/06:30pm 24.2 20.6 -2.4 17 11.7 NW 7 15 4 8 1005.6 1005.0 0.0
17/06:00pm 23.8 19.5 -1.9 18 11.5 WNW 11 24 6 13 1005.6 1005.0 0.0
17/05:30pm 24.3 19.6 -1.5 18 11.6 WNW 13 20 7 11 1005.8 1005.2 0.0
17/05:00pm 23.5 18.9 -0.7 20 11.0 W 13 28 7 15 1006.0 1005.4 0.0
17/04:30pm 23.5 18.9 -0.7 20 11.0 N 13 24 7 13 1006.1 1005.5 0.0
17/04:00pm 24.0 18.6 -1.0 19 11.4 WNW 17 33 9 18 1006.5 1005.9 0.0
17/03:30pm 23.8 18.8 -1.2 19 11.3 WNW 15 26 8 14 1007.0 1006.3 0.0
17/03:00pm 22.5 18.8 -0.3 22 10.4 W 9 20 5 11 1007.2 1006.5 0.0
17/02:30pm 22.5 19.4 1.5 25 9.9 SSW 7 15 4 8 1007.5 1006.8 0.0
17/02:00pm 21.6 18.1 1.3 26 9.4 W 9 19 5 10 1007.9 1007.2 0.0
17/01:30pm 20.4 15.6 0.3 26 9.1 WSW 15 22 8 12 1008.4 1007.8 0.0
17/01:00pm 19.8 16.0 1.7 30 8.4 W 11 19 6 10 1008.8 1008.2 0.0
17/12:30pm 19.2 15.3 1.2 30 8.2 NNW 11 26 6 14 1009.0 1008.4 0.0
17/12:00pm 18.9 14.8 2.3 33 7.7 SW 13 24 7 13 1009.3 1008.7 0.0
17/11:30am 17.4 13.2 1.8 35 7.1 SW 13 26 7 14 1009.4 1008.8 0.0
17/11:00am 17.1 13.9 3.1 39 6.5 WSW 9 19 5 10 1009.4 1008.8 0.0
17/10:30am 15.7 11.1 3.8 45 5.5 W 17 24 9 13 1009.5 1008.9 0.0
17/10:00am 16.3 12.8 5.3 48 5.3 S 13 20 7 11 1009.4 1008.8 0.0
17/09:30am 15.5 11.2 5.1 50 5.0 SW 17 24 9 13 1009.5 1008.9 0.0
17/09:00am 14.4 9.9 6.0 57 4.1 SSW 19 28 10 15 1009.5 1008.9 0.2
17/08:30am 13.9 10.1 6.0 59 3.8 SSW 15 20 8 11 1009.3 1008.7 0.2
17/08:00am 13.0 9.3 6.4 64 3.2 SW 15 19 8 10 1009.2 1008.6 0.2
17/07:30am 11.9 7.2 6.0 67 2.8 SW 20 30 11 16 1008.9 1008.3 0.2
17/07:00am 11.3 7.9 6.0 70 2.5 SW 13 20 7 11 1008.7 1008.1 0.2
17/06:30am 8.8 6.4 5.4 79 1.6 SSW 7 11 4 6 1008.1 1007.4 0.2
17/06:00am 8.2 6.2 4.4 77 1.7 SSW 4 7 2 4 1007.9 1007.2 0.2
17/05:30am 8.6 6.1 4.6 76 1.8 SE 7 11 4 6 1007.6 1006.9 0.2
17/05:00am 9.6 7.7 5.0 73 2.1 SSW 4 9 2 5 1007.1 1006.4 0.2
17/04:30am 10.3 7.5 5.1 70 2.4 SSW 9 15 5 8 1006.8 1006.1 0.2
17/04:00am 10.4 7.5 4.8 68 2.6 SW 9 13 5 7 1006.6 1006.0 0.2
17/03:30am 10.6 6.9 4.7 67 2.7 SW 13 17 7 9 1006.8 1006.1 0.2
17/03:00am 10.9 7.2 4.4 64 3.0 SW 13 20 7 11 1006.8 1006.1 0.2
17/02:30am 11.6 7.9 4.3 61 3.3 SW 13 19 7 10 1006.9 1006.2 0.2
17/02:00am 12.0 8.2 4.0 58 3.6 SW 13 22 7 12 1006.9 1006.2 0.2
17/01:30am 12.5 8.7 4.0 56 3.9 SSW 13 19 7 10 1006.9 1006.2 0.2
17/01:00am 12.9 8.7 3.8 54 4.2 SSW 15 24 8 13 1006.6 1006.0 0.2
17/12:30am 13.4 8.8 3.5 51 4.5 SSW 17 28 9 15 1006.5 1005.9 0.2
17/12:00am 13.9 8.9 3.4 49 4.8 SSW 19 30 10 16 1006.2 1005.6 0.2

Other Formats:

Comma delimited format used in spreadsheet applications
http://www.bom.gov.au/fwo/IDV60801/IDV60801.94855.axf

JavaScript Object Notation format (JSON) in row-major order
http://www.bom.gov.au/fwo/IDV60801/IDV60801.94855.json